Time;durP1;ratioP1;P1;durP2;ratioP2;P2;SDS_P1;SDS_P2;PMS_P1;PMS_P2;Temp;Humidity;BMP_temperature;BMP_pressure;BME280_temperature;BME280_humidity;BME280_pressure;Samples;Min_cycle;Max_cycle;Signal;HPM_P1;HPM_P2
2022/12/03 00:01:00;;;;;;;;;;;5.00;69.00;;;0.15;100.00;95348.94;4975104;28;19917;-53
2022/12/03 00:03:27;;;;;;;;;;;5.10;69.10;;;0.19;100.00;95350.94;4948346;28;19997;-55
2022/12/03 00:05:53;;;;;;;;;;;5.10;69.00;;;0.27;100.00;95346.50;4958403;28;19916;-51
2022/12/03 00:08:19;;;;;;;;;;;5.20;69.00;;;0.31;100.00;95337.19;4964238;28;19914;-49
2022/12/03 00:10:45;;;;;;;;;;;5.20;69.00;;;0.32;100.00;95344.06;4991986;28;19910;-54
2022/12/03 00:13:11;;;;;;;;;;;5.30;69.00;;;0.28;100.00;95343.66;4975397;28;20031;-53
2022/12/03 00:15:36;;;;;;;;;;;5.30;68.90;;;0.33;100.00;95348.28;4956572;28;19910;-51
2022/12/03 00:18:05;;;;;;;;;;;5.40;68.90;;;0.36;100.00;95347.88;4965427;28;19910;-50
2022/12/03 00:20:31;;;;;;;;;;;5.40;68.90;;;0.42;100.00;95345.22;4956752;28;19917;-54
2022/12/03 00:22:57;;;;;;;;;;;5.40;68.80;;;0.45;100.00;95344.03;4965665;28;19914;-50
2022/12/03 00:25:22;;;;;;;;;;;5.40;68.80;;;0.40;100.00;95349.06;4970994;28;19920;-53
2022/12/03 00:27:54;;;;;;;;;;;5.50;68.80;;;0.37;100.00;95342.41;4976804;28;20012;-52
2022/12/03 00:30:23;;;;;;;;;;;5.50;68.70;;;0.42;100.00;95344.44;4988526;28;19941;-51
2022/12/03 00:32:49;;;;;;;;;;;5.50;68.70;;;0.45;100.00;95333.53;4973829;28;19956;-53
2022/12/03 00:35:15;;;;;;;;;;;5.50;68.70;;;0.42;100.00;95329.50;4949709;28;19941;-52
2022/12/03 00:37:40;;;;;;;;;;;5.50;68.70;;;0.43;100.00;95333.72;4993926;28;19913;-52
2022/12/03 00:40:08;;;;;;;;;;;5.50;68.70;;;0.44;100.00;95335.34;4956426;28;19916;-50
2022/12/03 00:42:42;;;;;;;;;;;5.50;68.60;;;0.49;100.00;95333.94;4978597;28;19921;-49
2022/12/03 00:45:11;;;;;;;;;;;5.50;68.60;;;0.44;100.00;95337.97;4959144;28;19918;-49
2022/12/03 00:47:37;;;;;;;;;;;5.50;68.70;;;0.41;100.00;95327.91;4973541;28;19910;-50
2022/12/03 00:50:04;;;;;;;;;;;5.50;68.60;;;0.39;100.00;95335.16;4977762;28;20334;-50
2022/12/03 00:52:33;;;;;;;;;;;5.50;68.60;;;0.46;100.00;95343.00;4975265;28;19996;-51
2022/12/03 00:55:01;;;;;;;;;;;5.50;68.60;;;0.46;100.00;95346.41;4945522;28;20012;-49
2022/12/03 00:57:30;;;;;;;;;;;5.50;68.60;;;0.48;100.00;95340.19;4974905;28;19910;-50
2022/12/03 00:59:59;;;;;;;;;;;5.50;68.60;;;0.49;100.00;95339.97;4991856;28;20331;-51
2022/12/03 01:02:27;;;;;;;;;;;5.50;68.60;;;0.49;100.00;95345.22;4983608;28;19921;-49
2022/12/03 01:04:56;;;;;;;;;;;5.50;68.60;;;0.50;100.00;95341.56;4989222;28;19909;-51
2022/12/03 01:07:22;;;;;;;;;;;5.50;68.60;;;0.41;100.00;95341.00;4965280;28;20361;-51
2022/12/03 01:09:51;;;;;;;;;;;5.50;68.50;;;0.32;100.00;95330.97;4985415;28;19950;-50
2022/12/03 01:12:17;;;;;;;;;;;5.50;68.40;;;0.32;100.00;95333.59;4955701;28;19916;-49
2022/12/03 01:14:42;;;;;;;;;;;5.50;68.40;;;0.35;100.00;95335.78;4973467;28;19909;-52
2022/12/03 01:17:14;;;;;;;;;;;5.50;68.40;;;0.32;100.00;95336.22;4972634;28;19918;-52
2022/12/03 01:19:43;;;;;;;;;;;5.40;68.40;;;0.30;100.00;95341.63;4969389;28;19910;-49
2022/12/03 01:22:12;;;;;;;;;;;5.40;68.50;;;0.32;100.00;95341.44;4974881;28;19917;-50
2022/12/03 01:24:40;;;;;;;;;;;5.40;68.50;;;0.37;100.00;95342.41;4970885;28;20485;-52
2022/12/03 01:27:12;;;;;;;;;;;5.40;68.60;;;0.29;100.00;95341.84;4972316;28;20008;-50
2022/12/03 01:29:38;;;;;;;;;;;5.40;68.60;;;0.32;100.00;95350.09;4991988;28;19909;-50
2022/12/03 01:32:16;;;;;;;;;;;5.40;68.60;;;0.23;100.00;95343.47;4965821;28;19921;-54
2022/12/03 01:34:53;;;;;;;;;;;5.40;68.60;;;0.24;100.00;95347.69;4972879;28;20059;-50
2022/12/03 01:37:25;;;;;;;;;;;5.40;68.60;;;0.26;100.00;95352.75;4954608;28;19963;-50
2022/12/03 01:39:56;;;;;;;;;;;5.40;68.60;;;0.20;100.00;95360.41;4955511;28;19910;-52
2022/12/03 01:42:32;;;;;;;;;;;5.30;68.50;;;0.26;100.00;95352.75;4955737;28;19917;-50
2022/12/03 01:45:00;;;;;;;;;;;5.30;68.60;;;0.29;100.00;95352.34;4962600;28;20309;-53
2022/12/03 01:47:37;;;;;;;;;;;5.30;68.60;;;0.31;100.00;95355.53;4974066;28;19917;-52
2022/12/03 01:50:29;;;;;;;;;;;5.40;68.70;;;0.32;100.00;95357.16;4944494;28;19945;-47
2022/12/03 01:53:00;;;;;;;;;;;5.30;68.60;;;0.30;100.00;95359.97;4975347;28;19913;-50
2022/12/03 01:55:27;;;;;;;;;;;5.40;68.70;;;0.29;100.00;95355.75;4931289;28;19916;-53
2022/12/03 01:57:59;;;;;;;;;;;5.40;68.70;;;0.30;100.00;95372.28;4955110;28;19917;-47
2022/12/03 02:00:29;;;;;;;;;;;5.40;68.70;;;0.28;100.00;95375.09;4957213;28;20008;-49
2022/12/03 02:03:06;;;;;;;;;;;5.40;68.70;;;0.25;100.00;95369.47;4973882;28;19917;-47
2022/12/03 02:05:33;;;;;;;;;;;5.30;68.60;;;0.25;100.00;95365.03;5010528;28;19983;-48
2022/12/03 02:07:59;;;;;;;;;;;5.30;68.50;;;0.19;100.00;95358.00;4987606;28;20003;-46
2022/12/03 02:10:33;;;;;;;;;;;5.30;68.50;;;0.20;100.00;95360.41;5009891;28;19913;-51
2022/12/03 02:13:10;;;;;;;;;;;5.30;68.50;;;0.12;100.00;95365.84;4992161;28;19913;-47
2022/12/03 02:15:39;;;;;;;;;;;5.30;68.50;;;0.05;100.00;95356.41;5009173;28;19919;-51
2022/12/03 02:18:08;;;;;;;;;;;5.30;68.60;;;0.00;100.00;95354.41;5006098;28;19921;-47
2022/12/03 02:21:07;;;;;;;;;;;5.20;68.40;;;0.01;100.00;95357.84;4994671;28;20394;-50
2022/12/03 02:23:51;;;;;;;;;;;5.20;68.40;;;-0.02;100.00;95352.00;4973552;28;19913;-47
2022/12/03 02:26:17;;;;;;;;;;;5.10;68.40;;;-0.05;100.00;95349.78;4987080;28;19921;-47
2022/12/03 02:28:43;;;;;;;;;;;5.10;68.50;;;-0.01;100.00;95350.97;4971589;28;19909;-49
2022/12/03 02:31:09;;;;;;;;;;;5.10;68.60;;;-0.01;100.00;95348.34;4982969;28;19915;-51
2022/12/03 02:33:35;;;;;;;;;;;5.10;68.70;;;-0.04;100.00;95348.75;4966771;28;19913;-50
2022/12/03 02:36:02;;;;;;;;;;;5.10;68.70;;;-0.09;100.00;95345.16;4987388;28;20363;-51
2022/12/03 02:38:31;;;;;;;;;;;5.00;68.60;;;-0.11;100.00;95342.72;4966574;28;20407;-50
2022/12/03 02:41:07;;;;;;;;;;;5.00;68.60;;;-0.19;100.00;95348.16;4990906;28;20008;-50
2022/12/03 02:43:33;;;;;;;;;;;5.00;68.70;;;-0.19;100.00;95345.56;4962582;28;19917;-51
2022/12/03 02:46:02;;;;;;;;;;;5.00;68.70;;;-0.21;100.00;95357.25;4953971;28;20368;-51
2022/12/03 02:48:36;;;;;;;;;;;5.00;68.70;;;-0.21;100.00;95350.19;4968007;28;19914;-47
2022/12/03 02:51:08;;;;;;;;;;;5.00;68.70;;;-0.21;100.00;95352.81;4957794;28;19921;-49
2022/12/03 02:53:46;;;;;;;;;;;5.00;68.80;;;-0.18;100.00;95347.19;4951365;28;20424;-51
2022/12/03 02:56:18;;;;;;;;;;;4.90;68.70;;;-0.20;100.00;95346.56;4934404;29;19981;-48
2022/12/03 02:59:01;;;;;;;;;;;4.90;68.80;;;-0.30;100.00;95327.84;4969744;28;20110;-49
2022/12/03 03:01:27;;;;;;;;;;;4.90;68.80;;;-0.27;100.00;95324.84;4958403;28;20333;-48
2022/12/03 03:03:54;;;;;;;;;;;4.90;68.80;;;-0.26;100.00;95329.06;4970131;28;19910;-49
2022/12/03 03:06:21;;;;;;;;;;;4.90;68.80;;;-0.27;100.00;95337.91;4950007;28;19924;-49
2022/12/03 03:08:50;;;;;;;;;;;4.90;68.90;;;-0.30;100.00;95333.09;4967158;28;19910;-47
2022/12/03 03:11:16;;;;;;;;;;;4.90;68.90;;;-0.30;100.00;95333.88;4951017;28;20033;-47
2022/12/03 03:13:45;;;;;;;;;;;4.90;68.90;;;-0.28;100.00;95334.50;4956155;28;20008;-48
2022/12/03 03:16:14;;;;;;;;;;;4.90;68.90;;;-0.21;100.00;95342.34;4950389;29;19914;-48
2022/12/03 03:18:40;;;;;;;;;;;4.90;68.90;;;-0.28;100.00;95331.88;4958435;28;19949;-48
2022/12/03 03:21:10;;;;;;;;;;;4.90;68.90;;;-0.28;100.00;95324.03;4957904;28;20355;-47
2022/12/03 03:23:36;;;;;;;;;;;4.90;68.90;;;-0.26;100.00;95329.06;4954637;28;20013;-51
2022/12/03 03:26:10;;;;;;;;;;;4.90;68.90;;;-0.27;100.00;95336.09;4968147;28;20009;-49
2022/12/03 03:28:40;;;;;;;;;;;4.80;68.90;;;-0.28;100.00;95328.47;4969193;28;19936;-50
2022/12/03 03:31:10;;;;;;;;;;;4.80;68.90;;;-0.33;100.00;95330.88;4966024;28;20365;-50
2022/12/03 03:33:39;;;;;;;;;;;4.80;68.90;;;-0.36;100.00;95331.28;4957564;28;19996;-47
2022/12/03 03:36:09;;;;;;;;;;;4.80;68.90;;;-0.40;100.00;95325.66;4957694;28;19920;-47
2022/12/03 03:38:39;;;;;;;;;;;4.80;68.90;;;-0.41;100.00;95337.09;4947936;28;20043;-47
2022/12/03 03:41:06;;;;;;;;;;;4.80;68.90;;;-0.46;100.00;95339.53;4976776;28;19913;-49
2022/12/03 03:43:39;;;;;;;;;;;4.80;68.90;;;-0.51;100.00;95332.28;4963689;28;19957;-47
2022/12/03 03:46:07;;;;;;;;;;;4.70;68.90;;;-0.54;100.00;95335.28;4946485;28;19964;-48
2022/12/03 03:48:36;;;;;;;;;;;4.70;68.90;;;-0.52;100.00;95333.28;4968288;28;19964;-51
2022/12/03 03:51:08;;;;;;;;;;;4.70;68.90;;;-0.52;100.00;95337.72;4957490;28;19933;-49
2022/12/03 03:53:40;;;;;;;;;;;4.70;68.90;;;-0.54;100.00;95335.28;4957111;28;19916;-52
2022/12/03 03:56:07;;;;;;;;;;;4.70;69.00;;;-0.57;100.00;95327.84;4956378;28;20016;-50
2022/12/03 03:58:37;;;;;;;;;;;4.70;69.00;;;-0.54;100.00;95321.41;4957389;28;20012;-48
2022/12/03 04:01:03;;;;;;;;;;;4.70;69.00;;;-0.54;100.00;95322.22;4958007;28;20380;-51
2022/12/03 04:03:32;;;;;;;;;;;4.70;69.10;;;-0.51;100.00;95326.25;4949615;28;19920;-53
2022/12/03 04:05:58;;;;;;;;;;;4.60;69.10;;;-0.52;100.00;95327.25;4967169;28;20383;-48
2022/12/03 04:08:30;;;;;;;;;;;4.60;69.10;;;-0.54;100.00;95326.66;4986979;28;19913;-49
2022/12/03 04:13:47;;;;;;;;;;;4.70;69.20;;;-0.54;100.00;95337.91;4939930;28;20016;-49
2022/12/03 04:16:13;;;;;;;;;;;4.60;69.20;;;-0.46;100.00;95329.06;4954941;28;20012;-49
2022/12/03 04:18:42;;;;;;;;;;;4.70;69.20;;;-0.48;100.00;95328.47;4956847;28;19920;-48
2022/12/03 04:24:03;;;;;;;;;;;4.70;69.30;;;-0.51;100.00;95331.47;4985376;28;19925;-50
2022/12/03 04:29:17;;;;;;;;;;;4.70;69.30;;;-0.48;100.00;95329.25;4971496;28;19922;-52
2022/12/03 04:37:14;;;;;;;;;;;4.70;69.30;;;-0.62;100.00;95329.47;4966470;28;20003;-52
2022/12/03 04:39:39;;;;;;;;;;;4.60;69.20;;;-0.64;100.00;95321.00;4965581;28;19914;-49
2022/12/03 04:42:06;;;;;;;;;;;4.60;69.20;;;-0.60;100.00;95316.97;4958504;28;20509;-49
2022/12/03 04:44:37;;;;;;;;;;;4.60;69.20;;;-0.62;100.00;95319.81;4962748;28;20009;-50
2022/12/03 04:47:19;;;;;;;;;;;4.60;69.30;;;-0.64;100.00;95307.94;4968947;28;20165;-53
2022/12/03 04:49:48;;;;;;;;;;;4.60;69.30;;;-0.75;100.00;95330.28;4963991;28;19917;-54
2022/12/03 04:52:17;;;;;;;;;;;4.60;69.30;;;-0.70;100.00;95330.47;4957163;28;19953;-50
2022/12/03 04:54:44;;;;;;;;;;;4.60;69.30;;;-0.76;100.00;95324.22;4957917;28;19910;-50
2022/12/03 04:57:12;;;;;;;;;;;4.50;69.30;;;-0.74;100.00;95332.69;4957125;28;19910;-51
2022/12/03 04:59:44;;;;;;;;;;;4.60;69.40;;;-0.62;100.00;95329.47;4957992;28;19921;-51
2022/12/03 05:02:13;;;;;;;;;;;4.60;69.40;;;-0.64;100.00;95326.25;4961645;28;19960;-49
2022/12/03 05:04:42;;;;;;;;;;;4.50;69.40;;;-0.73;100.00;95329.03;4954549;28;19960;-50
2022/12/03 05:07:08;;;;;;;;;;;4.50;69.50;;;-0.68;100.00;95325.84;4952113;28;20383;-50
2022/12/03 05:09:36;;;;;;;;;;;4.50;69.40;;;-0.70;100.00;95335.69;4961142;28;19916;-52
2022/12/03 05:12:02;;;;;;;;;;;4.50;69.50;;;-0.67;100.00;95329.25;4970685;28;19916;-50
2022/12/03 05:14:28;;;;;;;;;;;4.50;69.50;;;-0.65;100.00;95319.41;4969513;28;20406;-51
2022/12/03 05:16:57;;;;;;;;;;;4.60;69.50;;;-0.63;100.00;95320.00;4969693;28;19914;-53
2022/12/03 05:20:40;;;;;;;;;;;4.50;69.50;;;-0.60;100.00;95328.25;4963619;28;20369;-51
2022/12/03 05:22:08;;;;;;;;;;;4.60;70.00;;;-0.61;100.00;95331.09;4966764;28;20012;-54
2022/12/03 05:24:34;;;;;;;;;;;4.60;69.60;;;-0.61;100.00;95331.88;4971349;28;20032;-50
2022/12/03 05:27:03;;;;;;;;;;;4.60;69.60;;;-0.59;100.00;95334.31;4969983;28;20013;-53
2022/12/03 05:29:35;;;;;;;;;;;4.60;69.60;;;-0.67;100.00;95335.28;4991481;28;19964;-55
2022/12/03 05:32:01;;;;;;;;;;;4.60;69.60;;;-0.67;100.00;95339.72;4969855;28;20403;-49
2022/12/03 05:34:26;;;;;;;;;;;4.60;69.60;;;-0.71;100.00;95337.50;4990827;28;19910;-51
2022/12/03 05:36:52;;;;;;;;;;;4.60;69.50;;;-0.67;100.00;95326.66;4967671;28;20016;-52
2022/12/03 05:39:18;;;;;;;;;;;4.60;69.60;;;-0.70;100.00;95328.66;4955177;28;19913;-52
2022/12/03 05:44:27;;;;;;;;;;;4.60;69.60;;;-0.72;100.00;95324.66;4980283;28;19917;-54
2022/12/03 05:46:59;;;;;;;;;;;4.50;69.50;;;-0.67;100.00;95316.97;4960428;28;19913;-50
2022/12/03 05:49:25;;;;;;;;;;;4.50;69.60;;;-0.68;100.00;95302.31;4989646;28;20273;-52
2022/12/03 05:51:53;;;;;;;;;;;4.50;69.60;;;-0.68;100.00;95298.88;4960920;28;19909;-53
2022/12/03 05:54:19;;;;;;;;;;;4.50;69.60;;;-0.67;100.00;95310.94;4965648;28;20117;-51
2022/12/03 05:56:47;;;;;;;;;;;4.50;69.60;;;-0.62;100.00;95314.59;4990357;28;19909;-50
2022/12/03 05:59:13;;;;;;;;;;;4.50;69.60;;;-0.63;100.00;95330.47;4991029;28;20003;-52
2022/12/03 06:01:38;;;;;;;;;;;4.60;69.70;;;-0.55;100.00;95336.31;4969827;28;19935;-53
2022/12/03 06:04:04;;;;;;;;;;;4.60;69.70;;;-0.57;100.00;95327.84;4976099;28;19914;-53
2022/12/03 06:06:33;;;;;;;;;;;4.60;69.70;;;-0.65;100.00;95316.78;4973596;28;19924;-50
2022/12/03 06:09:03;;;;;;;;;;;4.60;69.70;;;-0.68;100.00;95325.03;4970669;28;19944;-49
2022/12/03 06:11:32;;;;;;;;;;;4.60;69.60;;;-0.68;100.00;95318.00;4974664;28;19933;-54
2022/12/03 06:13:58;;;;;;;;;;;4.60;69.70;;;-0.60;100.00;95332.69;4976143;28;19913;-50
2022/12/03 06:16:30;;;;;;;;;;;4.60;69.70;;;-0.60;100.00;95349.19;4972849;28;20418;-50
2022/12/03 06:18:56;;;;;;;;;;;4.60;69.80;;;-0.53;100.00;95343.97;4979766;28;19916;-51
2022/12/03 06:21:21;;;;;;;;;;;4.60;69.80;;;-0.53;100.00;95339.53;4972270;28;20308;-54
2022/12/03 06:23:47;;;;;;;;;;;4.60;69.70;;;-0.56;100.00;95332.09;4953752;28;19910;-52
2022/12/03 06:26:14;;;;;;;;;;;4.60;69.60;;;-0.51;100.00;95319.19;4954309;28;20012;-54
2022/12/03 06:28:48;;;;;;;;;;;4.60;69.60;;;-0.44;100.00;95313.94;4987095;28;19909;-50
2022/12/03 06:31:17;;;;;;;;;;;4.60;69.60;;;-0.54;100.00;95311.75;4956726;28;19909;-54
2022/12/03 06:33:42;;;;;;;;;;;4.70;69.80;;;-0.53;100.00;95302.09;4953713;28;20440;-51
2022/12/03 06:36:08;;;;;;;;;;;4.70;69.80;;;-0.54;100.00;95297.88;4965873;28;20048;-51
2022/12/03 06:38:34;;;;;;;;;;;4.70;69.80;;;-0.53;100.00;95315.19;4965772;28;19981;-53
2022/12/03 06:41:00;;;;;;;;;;;4.70;69.80;;;-0.52;100.00;95309.75;5008980;28;20002;-53
2022/12/03 06:43:25;;;;;;;;;;;4.70;69.70;;;-0.47;100.00;95311.75;4975784;28;20008;-53
2022/12/03 06:45:51;;;;;;;;;;;4.70;69.70;;;-0.52;100.00;95308.94;4982258;28;20286;-48
2022/12/03 06:48:17;;;;;;;;;;;4.70;69.70;;;-0.56;100.00;95303.31;4998579;28;20312;-52
2022/12/03 06:50:43;;;;;;;;;;;4.70;69.70;;;-0.61;100.00;95316.19;4978624;28;20066;-54
2022/12/03 06:53:12;;;;;;;;;;;4.70;69.70;;;-0.62;100.00;95306.72;5011239;28;19916;-50
2022/12/03 06:55:37;;;;;;;;;;;4.70;69.60;;;-0.63;100.00;95305.09;4969444;28;20384;-50
2022/12/03 06:58:03;;;;;;;;;;;4.70;69.60;;;-0.60;100.00;95314.38;4988105;28;19913;-52
2022/12/03 07:00:32;;;;;;;;;;;4.60;69.60;;;-0.59;100.00;95316.78;4973073;28;19910;-51
2022/12/03 07:03:01;;;;;;;;;;;4.70;69.60;;;-0.56;100.00;95312.97;4963889;28;20151;-51
2022/12/03 07:05:26;;;;;;;;;;;4.60;69.60;;;-0.59;100.00;95310.75;4982292;28;19952;-50
2022/12/03 07:07:55;;;;;;;;;;;4.70;69.60;;;-0.55;100.00;95315.38;4972843;28;19956;-49
2022/12/03 07:10:21;;;;;;;;;;;4.70;69.60;;;-0.46;100.00;95329.06;4984390;28;20031;-50
2022/12/03 07:12:53;;;;;;;;;;;4.70;69.60;;;-0.41;100.00;95320.59;4990255;28;19970;-52
2022/12/03 07:15:22;;;;;;;;;;;4.70;69.70;;;-0.40;100.00;95336.13;4969702;28;20347;-56
2022/12/03 07:17:48;;;;;;;;;;;4.70;69.60;;;-0.40;100.00;95335.31;4975312;28;19927;-54
2022/12/03 07:20:15;;;;;;;;;;;4.80;69.70;;;-0.44;100.00;95334.88;4973205;28;19913;-54
2022/12/03 07:22:43;;;;;;;;;;;4.80;69.70;;;-0.47;100.00;95325.66;4985357;28;19920;-53
2022/12/03 07:25:11;;;;;;;;;;;4.80;69.60;;;-0.40;100.00;95328.25;4969094;28;19913;-50
2022/12/03 07:27:37;;;;;;;;;;;4.80;69.60;;;-0.43;100.00;95331.28;4978533;28;19918;-51
2022/12/03 07:30:05;;;;;;;;;;;4.80;69.60;;;-0.44;100.00;95327.03;4967486;28;19910;-56
2022/12/03 07:32:30;;;;;;;;;;;4.80;69.50;;;-0.43;100.00;95323.44;4963766;28;19909;-52
2022/12/03 07:34:57;;;;;;;;;;;4.90;69.60;;;-0.48;100.00;95315.38;4967649;28;19933;-51
2022/12/03 07:37:22;;;;;;;;;;;4.90;69.60;;;-0.51;100.00;95316.56;4953786;28;19910;-49
2022/12/03 07:39:48;;;;;;;;;;;4.90;70.30;;;-0.41;100.00;95313.56;4962696;28;20411;-49
2022/12/03 07:42:14;;;;;;;;;;;4.90;69.50;;;-0.39;100.00;95315.97;4968755;28;20069;-49
2022/12/03 07:44:39;;;;;;;;;;;4.90;69.50;;;-0.37;100.00;95306.13;4957445;28;19996;-49
2022/12/03 07:47:05;;;;;;;;;;;4.90;69.50;;;-0.36;100.00;95318.19;4963822;28;20399;-51
2022/12/03 07:49:34;;;;;;;;;;;4.90;69.40;;;-0.36;100.00;95319.00;4960414;28;19914;-50
2022/12/03 07:52:03;;;;;;;;;;;4.90;69.30;;;-0.39;100.00;95321.22;4946436;28;20008;-47
2022/12/03 07:54:28;;;;;;;;;;;5.00;69.40;;;-0.42;100.00;95313.78;4963986;28;20299;-47
2022/12/03 07:56:59;;;;;;;;;;;4.90;69.30;;;-0.37;100.00;95320.00;4985343;28;19913;-48
2022/12/03 07:59:31;;;;;;;;;;;4.90;69.30;;;-0.32;100.00;95327.25;4963748;28;20439;-49
2022/12/03 08:01:56;;;;;;;;;;;5.00;69.40;;;-0.36;100.00;95323.44;4981146;28;19967;-48
2022/12/03 08:04:22;;;;;;;;;;;5.00;69.40;;;-0.38;100.00;95323.63;4956910;28;19914;-54
2022/12/03 08:06:48;;;;;;;;;;;5.00;69.30;;;-0.36;100.00;95332.09;4951258;28;19941;-50
2022/12/03 08:09:14;;;;;;;;;;;5.00;69.30;;;-0.36;100.00;95326.03;4970223;28;19964;-53
2022/12/03 08:11:40;;;;;;;;;;;5.00;69.30;;;-0.37;100.00;95321.81;4971597;28;19916;-51
2022/12/03 08:14:19;;;;;;;;;;;5.00;69.20;;;-0.47;100.00;95320.41;4958888;28;20029;-49
2022/12/03 08:16:46;;;;;;;;;;;5.00;69.20;;;-0.33;100.00;95323.81;4963521;28;19917;-50
2022/12/03 08:19:18;;;;;;;;;;;5.00;69.20;;;-0.38;100.00;95315.75;4976908;28;19916;-53
2022/12/03 08:21:47;;;;;;;;;;;5.00;69.30;;;-0.43;100.00;95314.78;4966840;28;19913;-54
2022/12/03 08:24:20;;;;;;;;;;;5.00;69.20;;;-0.36;100.00;95316.38;4988319;28;20000;-53
2022/12/03 08:26:48;;;;;;;;;;;5.00;69.20;;;-0.32;100.00;95322.00;4424185;28;15974934;-50
2022/12/03 08:29:18;;;;;;;;;;;5.00;69.30;;;-0.38;100.00;95323.63;4924476;28;20924;-48
2022/12/03 08:31:53;;;;;;;;;;;5.00;69.20;;;-0.42;100.00;95319.00;4971266;28;20369;-49
2022/12/03 08:34:30;;;;;;;;;;;5.00;69.20;;;-0.37;100.00;95314.78;4955903;28;19916;-48
2022/12/03 08:37:18;;;;;;;;;;;5.00;69.20;;;-0.38;100.00;95314.97;4962191;28;20373;-49
2022/12/03 08:39:53;;;;;;;;;;;5.00;69.20;;;-0.33;100.00;95315.16;4974892;28;19910;-52
2022/12/03 08:42:42;;;;;;;;;;;5.00;69.20;;;-0.25;100.00;95314.97;4974715;28;20008;-52
2022/12/03 08:45:38;;;;;;;;;;;5.10;69.20;;;-0.27;100.00;95309.13;4976257;28;19952;-51
2022/12/03 08:48:07;;;;;;;;;;;5.10;69.20;;;-0.21;100.00;95320.59;4973628;28;19967;-51
2022/12/03 08:50:40;;;;;;;;;;;5.20;69.20;;;-0.21;100.00;95308.31;4974974;28;19957;-53
2022/12/03 08:53:12;;;;;;;;;;;5.20;69.20;;;-0.19;100.00;95321.97;4991620;28;19979;-49
2022/12/03 08:55:47;;;;;;;;;;;5.20;69.10;;;-0.24;100.00;95319.19;4984728;28;19913;-51
2022/12/03 08:58:43;;;;;;;;;;;5.20;69.00;;;-0.27;100.00;95315.16;4943384;28;19909;-51
2022/12/03 09:01:11;;;;;;;;;;;5.30;69.00;;;-0.22;100.00;95317.16;4980203;28;20315;-50
2022/12/03 09:03:53;;;;;;;;;;;5.30;69.00;;;-0.20;100.00;95309.91;4963860;28;19914;-50
2022/12/03 09:06:20;;;;;;;;;;;5.30;69.00;;;-0.19;100.00;95318.56;4951823;28;19920;-48
2022/12/03 09:08:47;;;;;;;;;;;5.30;68.90;;;-0.19;100.00;95321.19;4958090;28;20347;-50
2022/12/03 09:11:13;;;;;;;;;;;5.30;68.90;;;-0.16;100.00;95329.44;4957971;28;19945;-49
2022/12/03 09:13:40;;;;;;;;;;;5.30;68.90;;;-0.11;100.00;95319.16;4940992;28;19955;-51
2022/12/03 09:16:08;;;;;;;;;;;5.40;68.90;;;-0.09;100.00;95319.78;4955676;28;19917;-51
2022/12/03 09:18:34;;;;;;;;;;;5.40;68.90;;;-0.05;100.00;95320.16;4970151;28;19933;-50
2022/12/03 09:21:03;;;;;;;;;;;5.40;68.80;;;-0.08;100.00;95297.81;4986870;28;20360;-52
2022/12/03 09:23:31;;;;;;;;;;;5.40;68.80;;;-0.04;100.00;95303.44;4974373;28;20019;-51
2022/12/03 09:26:05;;;;;;;;;;;5.40;68.70;;;-0.10;100.00;95301.63;4988839;28;19909;-53
2022/12/03 09:28:31;;;;;;;;;;;5.50;68.70;;;-0.06;100.00;95301.03;4991764;28;20368;-47
2022/12/03 09:30:57;;;;;;;;;;;5.50;68.70;;;-0.03;100.00;95310.31;4974624;28;19910;-48
2022/12/03 09:33:23;;;;;;;;;;;5.50;68.60;;;0.00;100.00;95309.91;4970627;28;19909;-49
2022/12/03 09:35:54;;;;;;;;;;;5.60;68.60;;;0.02;100.00;95304.44;4954023;28;20266;-49
2022/12/03 09:38:22;;;;;;;;;;;5.60;68.50;;;0.04;100.00;95305.84;4989948;28;20268;-49
2022/12/03 09:40:48;;;;;;;;;;;5.70;68.50;;;0.09;100.00;95308.63;4974014;28;20012;-49
2022/12/03 09:43:18;;;;;;;;;;;5.70;68.50;;;0.10;100.00;95294.56;4990618;28;20004;-50
2022/12/03 09:45:48;;;;;;;;;;;5.70;68.40;;;0.10;100.00;95299.00;4973516;28;20390;-50
2022/12/03 09:48:19;;;;;;;;;;;5.70;68.40;;;0.09;100.00;95273.78;4972041;28;19921;-48
2022/12/03 09:50:45;;;;;;;;;;;5.70;68.30;;;0.18;100.00;95290.88;4887901;28;26173;-50
2022/12/03 09:53:24;;;;;;;;;;;5.80;68.40;;;0.30;100.00;95312.81;4962893;28;19941;-49
2022/12/03 09:55:50;;;;;;;;;;;5.80;68.40;;;0.35;100.00;95312.22;4955768;28;20369;-50
2022/12/03 09:58:18;;;;;;;;;;;5.80;68.50;;;0.24;100.00;95295.31;4960613;28;19968;-48
2022/12/03 10:00:49;;;;;;;;;;;5.80;68.30;;;0.20;100.00;95294.91;4958049;28;19916;-48
2022/12/03 10:03:23;;;;;;;;;;;5.90;68.30;;;0.29;100.00;95292.06;4958424;28;19918;-49
2022/12/03 10:05:50;;;;;;;;;;;6.00;68.20;;;0.34;100.00;95287.81;4963306;28;19910;-50
2022/12/03 10:08:27;;;;;;;;;;;6.10;68.90;;;0.26;100.00;95279.41;4951212;28;19918;-51
2022/12/03 10:10:59;;;;;;;;;;;6.10;67.90;;;0.39;100.00;95279.34;4957672;28;19918;-50
2022/12/03 10:13:29;;;;;;;;;;;6.20;67.80;;;0.38;100.00;95280.34;4956677;28;20041;-51
2022/12/03 10:15:59;;;;;;;;;;;6.30;67.80;;;0.46;100.00;95280.91;4934743;28;19914;-48
2022/12/03 10:18:33;;;;;;;;;;;6.30;67.60;;;0.34;100.00;95272.09;4950258;28;19917;-48
2022/12/03 10:20:59;;;;;;;;;;;6.30;67.50;;;0.40;100.00;95270.44;4950901;28;20324;-49
2022/12/03 10:23:29;;;;;;;;;;;6.30;67.40;;;0.52;100.00;95268.78;4951800;28;19918;-49
2022/12/03 10:26:01;;;;;;;;;;;6.30;67.50;;;0.49;100.00;95250.06;4965065;28;19924;-51
2022/12/03 10:28:42;;;;;;;;;;;6.30;67.50;;;0.50;100.00;95249.84;4999447;23;20591;-50
2022/12/03 10:31:13;;;;;;;;;;;6.30;67.40;;;0.61;100.00;95246.56;4989055;28;19927;-51
2022/12/03 10:33:46;;;;;;;;;;;6.40;67.60;;;0.62;100.00;95249.97;4984897;28;19909;-49
2022/12/03 10:36:22;;;;;;;;;;;6.40;67.50;;;0.80;100.00;95265.00;5000320;28;20441;-50
2022/12/03 10:39:14;;;;;;;;;;;6.50;67.60;;;0.84;99.93;95269.59;4981397;28;19992;-54
2022/12/03 10:41:43;;;;;;;;;;;6.50;67.60;;;0.81;99.27;95264.00;4983698;28;20330;-52
2022/12/03 10:44:35;;;;;;;;;;;6.60;67.60;;;0.71;99.15;95247.91;4969085;28;19914;-52
2022/12/03 10:47:10;;;;;;;;;;;6.70;67.50;;;0.65;99.02;95233.84;4994937;28;19913;-54
2022/12/03 10:49:37;;;;;;;;;;;6.70;67.20;;;0.50;100.00;95230.69;4988442;28;19952;-54
2022/12/03 10:52:21;;;;;;;;;;;6.80;66.90;;;0.59;100.00;95237.28;4985218;28;19941;-55
2022/12/03 10:54:49;;;;;;;;;;;6.80;66.80;;;0.67;100.00;95219.50;5004232;28;19916;-53
2022/12/03 10:57:17;;;;;;;;;;;6.80;66.90;;;0.75;100.00;95220.25;4970791;28;19940;-51
2022/12/03 10:59:43;;;;;;;;;;;6.80;66.80;;;0.60;100.00;95205.63;4977109;28;19917;-50
2022/12/03 11:02:24;;;;;;;;;;;6.80;66.80;;;0.62;99.80;95208.03;4985853;28;19914;-49
2022/12/03 11:04:50;;;;;;;;;;;6.90;66.70;;;0.55;99.44;95202.03;4979415;28;20006;-50
2022/12/03 11:07:22;;;;;;;;;;;6.90;66.60;;;0.63;99.76;95191.31;5001639;28;19910;-51
2022/12/03 11:09:57;;;;;;;;;;;6.90;66.40;;;0.72;99.42;95197.09;4987493;28;19925;-49
2022/12/03 11:12:33;;;;;;;;;;;6.90;66.40;;;0.91;98.49;95193.53;5001013;28;19917;-49
2022/12/03 11:15:07;;;;;;;;;;;6.90;66.60;;;0.77;99.35;95199.88;4988847;28;19966;-49
2022/12/03 11:17:44;;;;;;;;;;;6.80;66.60;;;0.82;99.47;95193.00;4989761;28;19910;-49
2022/12/03 11:20:19;;;;;;;;;;;6.60;66.70;;;0.84;99.67;95193.56;4989215;28;19945;-49
2022/12/03 11:22:54;;;;;;;;;;;6.50;66.70;;;0.88;99.57;95183.47;4989567;28;19913;-49
2022/12/03 11:25:26;;;;;;;;;;;6.50;67.00;;;0.77;99.42;95189.41;4986653;28;19910;-52
2022/12/03 11:28:10;;;;;;;;;;;6.40;67.10;;;0.71;99.83;95204.16;4986778;28;19925;-50
2022/12/03 11:30:55;;;;;;;;;;;6.30;67.10;;;0.68;99.81;95205.38;4987622;28;19949;-52
2022/12/03 11:33:39;;;;;;;;;;;6.30;67.20;;;0.63;99.60;95207.03;5010580;28;19939;-54
2022/12/03 11:36:04;;;;;;;;;;;6.20;67.30;;;0.67;99.76;95208.22;4979222;28;19910;-52
2022/12/03 11:38:50;;;;;;;;;;;6.20;67.40;;;0.55;100.00;95194.97;4988194;28;20379;-52
2022/12/03 11:41:30;;;;;;;;;;;6.10;67.40;;;0.56;99.98;95204.44;5007410;28;19909;-51
2022/12/03 11:44:28;;;;;;;;;;;6.10;67.40;;;0.60;100.00;95194.34;4986362;28;19910;-53
2022/12/03 11:46:56;;;;;;;;;;;6.10;67.50;;;0.57;99.87;95192.97;4990393;28;20003;-53
2022/12/03 11:49:34;;;;;;;;;;;6.00;67.50;;;0.47;100.00;95176.91;4990081;28;19917;-48
2022/12/03 11:52:17;;;;;;;;;;;6.00;67.50;;;0.27;100.00;95187.47;4966257;28;19909;-52